Time;durP1;ratioP1;P1;durP2;ratioP2;P2;SDS_P1;SDS_P2;PMS_P1;PMS_P2;Temp;Humidity;BMP_temperature;BMP_pressure;BME280_temperature;BME280_humidity;BME280_pressure;Samples;Min_cycle;Max_cycle;Signal;HPM_P1;HPM_P2
2022/02/22 00:00:16;;;;;;;27.17;11.67;;;;;;;2.63;76.88;101057.48;1925811;74;21058;-60
2022/02/22 00:02:47;;;;;;;30.90;12.53;;;;;;;2.60;76.78;101054.91;1925792;74;21187;-60
2022/02/22 00:05:16;;;;;;;33.23;13.53;;;;;;;2.60;76.83;101057.50;1925908;74;21042;-60
2022/02/22 00:07:45;;;;;;;26.00;11.20;;;;;;;2.75;77.16;101050.11;1925804;74;21512;-60
2022/02/22 00:10:15;;;;;;;24.55;10.90;;;;;;;2.76;77.05;101044.47;1925807;74;21160;-60
2022/02/22 00:12:44;;;;;;;28.10;12.35;;;;;;;2.82;77.07;101041.84;1925802;74;21505;-60
2022/02/22 00:15:13;;;;;;;24.43;10.45;;;;;;;2.97;77.20;101036.63;1925721;74;21219;-61
2022/02/22 00:17:42;;;;;;;23.98;11.28;;;;;;;3.05;77.08;101032.25;1926028;74;21485;-60
2022/02/22 00:20:12;;;;;;;30.15;12.70;;;;;;;3.24;77.27;101032.17;1925780;74;21066;-60
2022/02/22 00:22:41;;;;;;;17.67;8.55;;;;;;;3.44;77.47;101030.34;1925775;74;21038;-60
2022/02/22 00:25:12;;;;;;;25.97;11.48;;;;;;;3.79;78.58;101031.88;1925835;74;21034;-60
2022/02/22 00:27:42;;;;;;;26.68;11.15;;;;;;;4.04;78.12;101021.31;1925744;74;21106;-61
2022/02/22 00:30:15;;;;;;;21.10;10.48;;;;;;;4.21;77.80;101020.72;1925988;74;21046;-61
2022/02/22 00:32:43;;;;;;;28.07;10.50;;;;;;;4.39;77.64;101022.73;1925821;74;21108;-61
2022/02/22 00:35:13;;;;;;;21.00;10.43;;;;;;;4.56;77.58;101029.13;1925800;74;21532;-60
2022/02/22 00:37:42;;;;;;;20.57;10.28;;;;;;;4.65;77.47;101018.59;1925943;74;21555;-61
2022/02/22 00:40:12;;;;;;;25.17;10.50;;;;;;;4.76;77.53;101013.27;1925848;74;21192;-61
2022/02/22 00:42:41;;;;;;;23.87;10.98;;;;;;;4.82;77.40;101013.20;1925979;74;21128;-61
2022/02/22 00:45:11;;;;;;;22.35;9.85;;;;;;;4.86;77.36;101013.58;1925951;74;21560;-60
2022/02/22 00:47:40;;;;;;;24.25;9.65;;;;;;;4.92;77.40;101013.50;1925922;74;21038;-60
2022/02/22 00:50:10;;;;;;;23.83;9.85;;;;;;;4.95;77.35;101014.78;1925939;74;21465;-60
2022/02/22 00:52:39;;;;;;;22.55;9.78;;;;;;;4.99;77.34;101010.39;1925811;74;21027;-61
2022/02/22 00:55:09;;;;;;;22.58;10.55;;;;;;;5.02;77.29;101006.00;1925920;74;21070;-60
2022/02/22 00:57:41;;;;;;;26.27;10.48;;;;;;;5.00;77.23;101004.30;1926020;74;21104;-60
2022/02/22 01:00:11;;;;;;;23.83;10.00;;;;;;;4.89;77.07;101004.84;1925736;74;21028;-61
2022/02/22 01:02:39;;;;;;;21.50;9.75;;;;;;;4.77;76.98;101001.94;1925913;74;21031;-61
2022/02/22 01:05:09;;;;;;;26.07;10.78;;;;;;;4.62;76.88;101002.52;1925796;74;21133;-61
2022/02/22 01:07:38;;;;;;;25.30;10.85;;;;;;;4.45;76.82;100994.88;1926005;74;21023;-61
2022/02/22 01:10:07;;;;;;;28.15;11.25;;;;;;;4.31;76.94;100989.36;1925929;74;21047;-60
2022/02/22 01:12:36;;;;;;;25.27;11.48;;;;;;;4.25;77.15;100989.84;1926050;74;21105;-61
2022/02/22 01:15:07;;;;;;;27.77;11.45;;;;;;;4.19;77.21;100977.31;1925894;74;21497;-61
2022/02/22 01:17:35;;;;;;;22.27;10.20;;;;;;;4.11;77.21;100975.20;1925812;74;21151;-61
2022/02/22 01:20:08;;;;;;;25.30;10.78;;;;;;;4.03;77.22;100978.73;1926013;74;21026;-61
2022/02/22 01:22:37;;;;;;;27.10;11.53;;;;;;;3.99;77.25;100982.25;1925990;74;21465;-60
2022/02/22 01:25:08;;;;;;;28.15;11.50;;;;;;;3.96;77.25;100975.75;1925903;74;21019;-60
2022/02/22 01:27:38;;;;;;;29.25;12.00;;;;;;;3.92;77.28;100977.10;1926177;74;21104;-60
2022/02/22 01:30:08;;;;;;;26.40;12.50;;;;;;;3.95;77.38;100975.78;1925901;74;21042;-61
2022/02/22 01:32:38;;;;;;;24.90;11.57;;;;;;;3.92;77.37;100970.59;1926003;74;21030;-61
2022/02/22 01:35:08;;;;;;;26.77;11.83;;;;;;;3.88;77.39;100976.70;1925927;74;21006;-61
2022/02/22 01:37:37;;;;;;;25.02;10.75;;;;;;;3.83;77.41;100976.28;1925917;74;21038;-61
2022/02/22 01:40:08;;;;;;;28.75;11.25;;;;;;;3.77;77.39;100976.33;1925901;74;21054;-61
2022/02/22 01:42:36;;;;;;;30.35;11.03;;;;;;;3.75;77.46;100981.14;1925866;74;21034;-61
2022/02/22 01:45:06;;;;;;;27.25;12.13;;;;;;;3.76;77.59;100981.13;1925898;74;21042;-61
2022/02/22 01:47:35;;;;;;;27.32;10.82;;;;;;;3.84;77.73;100971.51;1925989;74;21354;-61
2022/02/22 01:50:06;;;;;;;25.77;10.43;;;;;;;3.98;78.00;100973.13;1925906;74;21058;-61
2022/02/22 01:52:35;;;;;;;20.17;7.90;;;;;;;4.22;78.65;100968.14;1925935;74;21038;-61
2022/02/22 01:55:04;;;;;;;23.42;11.20;;;;;;;4.49;78.91;100969.63;1925844;74;21042;-62
2022/02/22 01:57:33;;;;;;;30.72;12.00;;;;;;;4.68;78.93;100965.52;1925988;74;21528;-60
2022/02/22 02:00:04;;;;;;;25.32;11.40;;;;;;;4.84;78.89;100964.02;1925996;74;21042;-61
2022/02/22 02:02:35;;;;;;;30.27;12.13;;;;;;;4.94;78.78;100967.41;1924940;74;21058;-60
2022/02/22 02:05:05;;;;;;;23.18;10.30;;;;;;;5.01;78.85;100962.50;1925915;74;21539;-60
2022/02/22 02:07:34;;;;;;;24.50;10.08;;;;;;;5.10;78.78;100956.76;1925765;74;21007;-61
2022/02/22 02:10:03;;;;;;;19.87;8.60;;;;;;;5.16;78.71;100956.67;1925883;74;20995;-60
2022/02/22 02:12:39;;;;;;;20.45;9.53;;;;;;;5.26;78.76;100953.06;1925875;74;21426;-60
2022/02/22 02:15:09;;;;;;;17.45;8.53;;;;;;;5.38;78.70;100954.63;1926000;74;21035;-61
2022/02/22 02:17:38;;;;;;;16.48;8.23;;;;;;;5.44;78.49;100958.90;1925968;74;21086;-61
2022/02/22 02:20:09;;;;;;;14.03;6.33;;;;;;;5.53;78.41;100961.38;1925750;74;21211;-61
2022/02/22 02:22:38;;;;;;;20.82;8.55;;;;;;;5.61;78.26;100969.98;1925852;74;21074;-61
2022/02/22 02:25:08;;;;;;;20.12;8.98;;;;;;;5.64;77.95;100965.14;1925840;74;21590;-61
2022/02/22 02:27:37;;;;;;;17.48;8.58;;;;;;;5.63;77.83;100976.50;1925995;74;21121;-61
2022/02/22 02:30:08;;;;;;;18.10;8.18;;;;;;;5.60;77.71;100973.02;1925879;74;21594;-61
2022/02/22 02:32:37;;;;;;;17.85;8.40;;;;;;;5.55;77.62;100973.97;1925880;74;21159;-61
2022/02/22 02:35:07;;;;;;;19.92;8.55;;;;;;;5.50;77.61;100977.97;1925887;74;21435;-61
2022/02/22 02:37:37;;;;;;;20.50;7.28;;;;;;;5.51;77.69;100977.06;1926034;74;21120;-61
2022/02/22 02:40:08;;;;;;;19.27;8.43;;;;;;;5.55;77.69;100967.44;1926151;74;21530;-61
2022/02/22 02:42:44;;;;;;;15.28;5.80;;;;;;;5.56;77.49;100966.56;1925846;74;21061;-61
2022/02/22 02:45:13;;;;;;;12.33;6.45;;;;;;;5.64;77.56;100967.30;1925780;74;21469;-61
2022/02/22 02:47:42;;;;;;;15.43;7.20;;;;;;;5.69;77.46;100960.27;1925876;74;21481;-60
2022/02/22 02:50:11;;;;;;;16.82;6.10;;;;;;;5.74;77.33;100959.76;1925878;74;21046;-60
2022/02/22 02:52:40;;;;;;;14.85;6.30;;;;;;;5.77;77.15;100962.34;1925856;74;21533;-60
2022/02/22 02:55:10;;;;;;;11.68;5.58;;;;;;;5.74;77.01;100956.30;1925867;74;21062;-60
2022/02/22 02:57:59;;;;;;;13.05;5.83;;;;;;;5.70;76.96;100955.48;1928091;74;21106;-61
2022/02/22 03:00:28;;;;;;;13.58;6.05;;;;;;;5.72;77.01;100955.01;1831250;78;21127;-60
2022/02/22 03:02:57;;;;;;;16.97;6.40;;;;;;;5.77;77.03;100953.61;1831384;78;21614;-60
2022/02/22 03:05:26;;;;;;;18.32;7.53;;;;;;;5.78;76.81;100954.90;1831307;78;21077;-60
2022/02/22 03:07:58;;;;;;;14.70;6.25;;;;;;;5.79;76.76;100954.45;1831216;78;21151;-61
2022/02/22 03:10:25;;;;;;;12.73;6.17;;;;;;;5.79;76.67;100953.14;1831202;78;21029;-61
2022/02/22 03:12:54;;;;;;;16.77;6.97;;;;;;;5.79;76.68;100957.95;1831284;78;21485;-61
2022/02/22 03:15:23;;;;;;;10.35;5.87;;;;;;;5.80;76.68;100967.49;1831379;78;21127;-60
2022/02/22 03:17:51;;;;;;;16.62;6.45;;;;;;;5.79;76.60;100958.36;1831273;78;21523;-60
2022/02/22 03:20:20;;;;;;;15.20;7.08;;;;;;;5.79;76.57;100955.33;1831276;78;21194;-60
2022/02/22 03:22:50;;;;;;;10.38;5.05;;;;;;;5.82;76.50;100957.47;1831202;77;21140;-61
2022/02/22 03:25:19;;;;;;;20.60;7.60;;;;;;;5.76;76.37;100954.06;1831256;78;21540;-60
2022/02/22 03:27:50;;;;;;;17.57;7.40;;;;;;;5.68;76.28;100949.41;1831281;78;21069;-60
2022/02/22 03:30:38;;;;;;;17.17;9.55;;;;;;;5.62;76.35;100941.65;1862142;77;21116;-60
2022/02/22 03:33:10;;;;;;;15.32;7.60;;;;;;;5.57;76.42;100941.73;1963142;71;21071;-61
2022/02/22 03:35:40;;;;;;;15.23;7.47;;;;;;;5.52;76.35;100937.47;1971571;73;21101;-61
2022/02/22 03:38:09;;;;;;;17.75;7.42;;;;;;;5.42;76.24;100943.25;1971580;73;21027;-60
2022/02/22 03:40:39;;;;;;;16.05;5.80;;;;;;;5.31;76.20;100943.43;1971551;73;21035;-60
2022/02/22 03:43:08;;;;;;;15.28;6.58;;;;;;;5.22;76.39;100942.25;1971684;73;21093;-60
2022/02/22 03:45:37;;;;;;;17.30;7.12;;;;;;;5.23;76.69;100945.27;1971463;71;21019;-61
2022/02/22 03:48:06;;;;;;;15.08;7.42;;;;;;;5.23;76.82;100940.05;1971576;73;21016;-60
2022/02/22 03:50:35;;;;;;;19.48;7.42;;;;;;;5.22;76.87;100941.80;1971496;73;21450;-60
2022/02/22 03:53:05;;;;;;;17.25;7.78;;;;;;;5.25;76.83;100940.88;1971658;73;21031;-60
2022/02/22 03:55:34;;;;;;;14.23;6.42;;;;;;;5.28;76.87;100943.46;1971591;73;21423;-61
2022/02/22 03:58:03;;;;;;;13.10;6.10;;;;;;;5.33;76.90;100941.66;1971481;73;21647;-61
2022/02/22 04:00:31;;;;;;;17.50;7.22;;;;;;;5.40;76.84;100947.22;1971669;73;21008;-61
2022/02/22 04:03:03;;;;;;;15.38;7.30;;;;;;;5.43;76.75;100947.60;1971673;73;21588;-61
2022/02/22 04:05:31;;;;;;;16.00;7.53;;;;;;;5.39;76.57;100941.56;1971353;73;21110;-60
2022/02/22 04:08:00;;;;;;;17.62;7.47;;;;;;;5.33;76.52;100941.66;1971489;73;21458;-60
2022/02/22 04:10:29;;;;;;;15.85;7.60;;;;;;;5.25;76.53;100944.80;1971515;73;21027;-62
2022/02/22 04:12:58;;;;;;;14.80;7.58;;;;;;;5.21;76.59;100946.59;1971657;73;21125;-61
2022/02/22 04:15:26;;;;;;;13.72;7.33;;;;;;;5.16;76.55;100939.70;1971921;73;21003;-61
2022/02/22 04:17:55;;;;;;;14.63;6.78;;;;;;;5.11;76.53;100942.81;1971684;73;21117;-61
2022/02/22 04:20:24;;;;;;;11.33;4.72;;;;;;;5.08;76.62;100940.27;1971775;73;21039;-61
2022/02/22 04:22:52;;;;;;;5.00;3.52;;;;;;;5.10;76.82;100939.34;1971892;73;21069;-61
2022/02/22 04:25:21;;;;;;;12.03;5.62;;;;;;;5.15;76.93;100941.46;1971761;73;21481;-61
2022/02/22 04:27:50;;;;;;;14.15;5.97;;;;;;;5.23;77.02;100943.96;1971677;73;21539;-61
2022/02/22 04:30:19;;;;;;;14.85;7.20;;;;;;;5.30;77.00;100944.75;1971579;73;21571;-60
2022/02/22 04:32:48;;;;;;;17.25;6.55;;;;;;;5.39;76.97;100948.09;1972733;71;21140;-60
2022/02/22 04:35:17;;;;;;;16.73;5.85;;;;;;;5.48;76.80;100951.44;1974134;73;21137;-60
2022/02/22 04:37:46;;;;;;;19.05;7.05;;;;;;;5.57;76.74;100953.49;1973916;73;21000;-61
2022/02/22 04:40:14;;;;;;;19.90;7.92;;;;;;;5.72;76.69;100945.01;1974128;73;21024;-61
2022/02/22 04:42:46;;;;;;;18.10;9.45;;;;;;;5.89;76.50;100952.57;1974020;73;21043;-60
2022/02/22 04:45:13;;;;;;;17.17;7.50;;;;;;;6.01;76.28;100956.30;1973712;73;21142;-60
2022/02/22 04:47:42;;;;;;;18.85;8.85;;;;;;;6.10;76.08;100947.00;1974152;73;21462;-60
2022/02/22 04:50:12;;;;;;;19.67;8.53;;;;;;;6.17;76.00;100951.23;1973967;73;21023;-61
2022/02/22 04:52:41;;;;;;;23.65;8.98;;;;;;;6.29;75.90;100949.28;1974066;72;21514;-60
2022/02/22 04:55:10;;;;;;;25.70;11.63;;;;;;;6.50;75.61;100954.59;1974037;73;21443;-60
2022/02/22 04:57:39;;;;;;;19.25;8.05;;;;;;;6.75;75.27;100950.61;1974033;73;21461;-60
2022/02/22 05:00:16;;;;;;;19.00;7.47;;;;;;;6.98;75.09;100944.49;1974059;73;21024;-60
2022/02/22 05:02:42;;;;;;;17.65;7.25;;;;;;;7.22;74.95;100951.81;1972524;73;21060;-61
2022/02/22 05:05:11;;;;;;;20.20;9.33;;;;;;;7.42;75.04;100945.28;1973983;73;21418;-61
2022/02/22 05:07:40;;;;;;;17.87;8.40;;;;;;;7.60;74.97;100944.86;1974036;73;21422;-61
2022/02/22 05:10:09;;;;;;;21.02;9.68;;;;;;;7.81;74.45;100942.16;1974089;73;21024;-61
2022/02/22 05:12:38;;;;;;;19.57;10.20;;;;;;;8.08;73.78;100945.02;1974005;73;21043;-61
2022/02/22 05:15:07;;;;;;;21.62;9.13;;;;;;;8.45;73.38;100950.19;1973960;72;21121;-61
2022/02/22 05:17:37;;;;;;;17.30;8.25;;;;;;;8.84;73.19;100944.73;1974095;73;21598;-61
2022/02/22 05:20:09;;;;;;;15.35;7.05;;;;;;;9.20;72.90;100947.63;1974236;73;21032;-60
2022/02/22 05:22:43;;;;;;;16.17;7.55;;;;;;;9.41;72.63;100938.25;1974034;73;21024;-60
2022/02/22 05:25:13;;;;;;;15.53;7.10;;;;;;;9.52;71.86;100937.46;1974125;73;21560;-60
2022/02/22 05:27:43;;;;;;;15.63;8.05;;;;;;;9.68;70.54;100934.33;1973981;72;21007;-61
2022/02/22 05:30:14;;;;;;;15.25;6.97;;;;;;;9.89;69.54;100936.27;1974067;71;21109;-61
2022/02/22 05:32:43;;;;;;;13.80;7.42;;;;;;;10.17;68.83;100931.40;1973938;73;21517;-61
2022/02/22 05:35:14;;;;;;;15.30;6.95;;;;;;;10.42;68.24;100929.67;1974122;73;21032;-61
2022/02/22 05:37:42;;;;;;;18.82;8.08;;;;;;;10.62;67.31;100926.76;1974281;73;21023;-60
2022/02/22 05:40:12;;;;;;;16.62;7.08;;;;;;;10.92;66.92;100930.06;1973862;73;21133;-61
2022/02/22 05:42:41;;;;;;;26.02;10.05;;;;;;;11.27;66.74;100925.22;1973994;73;21023;-61
2022/02/22 05:45:10;;;;;;;28.67;11.93;;;;;;;11.73;66.46;100925.14;1973928;73;21043;-61
2022/02/22 05:47:41;;;;;;;28.02;11.00;;;;;;;12.10;65.38;100921.03;1959042;73;21194;-60
2022/02/22 05:50:10;;;;;;;37.28;14.00;;;;;;;12.58;64.74;100925.09;1964994;73;21021;-61
2022/02/22 05:52:39;;;;;;;45.90;17.50;;;;;;;13.02;63.94;100923.55;1964761;73;21542;-61
2022/02/22 05:55:08;;;;;;;37.15;13.95;;;;;;;13.38;62.74;100925.41;1964862;73;21174;-61
2022/02/22 05:57:38;;;;;;;36.13;15.53;;;;;;;13.79;61.96;100925.17;1964965;72;21017;-61
2022/02/22 06:00:09;;;;;;;27.42;13.18;;;;;;;14.19;60.83;100921.00;1964839;73;21037;-61
2022/02/22 06:02:38;;;;;;;25.55;13.55;;;;;;;14.56;59.96;100921.26;1965094;73;21014;-61
2022/02/22 06:05:07;;;;;;;18.98;11.05;;;;;;;14.94;58.76;100911.77;1964792;73;21115;-61
2022/02/22 06:07:37;;;;;;;20.97;9.50;;;;;;;15.27;57.65;100916.16;1964899;73;21123;-61
2022/02/22 06:10:06;;;;;;;21.42;9.85;;;;;;;15.52;56.97;100910.78;1964896;73;21535;-61
2022/02/22 06:12:35;;;;;;;16.30;8.75;;;;;;;15.86;56.63;100909.73;1964891;73;21160;-61
2022/02/22 06:15:05;;;;;;;15.60;8.28;;;;;;;16.18;55.45;100910.46;1964860;73;21119;-60
2022/02/22 06:17:45;;;;;;;14.55;7.30;;;;;;;16.63;55.23;100917.54;1964935;73;21013;-61
2022/02/22 06:20:14;;;;;;;17.35;8.23;;;;;;;17.02;54.49;100915.55;1965013;73;20993;-61
2022/02/22 06:22:45;;;;;;;19.90;8.98;;;;;;;17.27;53.40;100910.85;1964928;73;21111;-61
2022/02/22 06:25:15;;;;;;;16.80;7.75;;;;;;;17.56;52.81;100910.30;1965003;73;21010;-61
2022/02/22 06:27:54;;;;;;;18.17;7.97;;;;;;;17.81;51.16;100915.31;1965049;73;21011;-61
2022/02/22 06:30:25;;;;;;;20.52;7.75;;;;;;;18.07;50.93;100910.92;1964757;73;21091;-61
2022/02/22 06:32:54;;;;;;;14.07;7.12;;;;;;;18.47;50.23;100912.19;1964806;73;21022;-61
2022/02/22 06:35:23;;;;;;;14.40;7.20;;;;;;;18.74;48.69;100913.91;1964881;73;21013;-61
2022/02/22 06:37:52;;;;;;;14.35;5.58;;;;;;;19.06;48.18;100912.11;1964874;73;21053;-61
2022/02/22 06:40:21;;;;;;;14.83;6.30;;;;;;;19.31;46.82;100914.33;1965148;72;21077;-61
2022/02/22 06:42:49;;;;;;;13.98;6.85;;;;;;;19.76;46.30;100918.12;1964791;73;20998;-61
2022/02/22 06:45:18;;;;;;;16.42;6.25;;;;;;;20.31;45.38;100922.92;1964841;73;21029;-61
2022/02/22 06:47:47;;;;;;;12.43;6.20;;;;;;;20.78;44.82;100921.88;1964765;73;21143;-61
2022/02/22 06:50:16;;;;;;;13.10;6.90;;;;;;;21.24;43.60;100916.50;1964976;73;21154;-61
2022/02/22 06:52:45;;;;;;;12.63;4.60;;;;;;;21.72;42.81;100916.14;1964849;73;21424;-61
2022/02/22 06:55:15;;;;;;;4.85;2.10;;;;;;;22.08;41.89;100910.86;1965059;73;21002;-61
2022/02/22 06:57:51;;;;;;;11.12;2.60;;;;;;;21.84;39.68;100911.58;1964990;73;21029;-61
2022/02/22 07:00:21;;;;;;;11.33;3.12;;;;;;;21.90;39.41;100904.38;1964861;73;21050;-60
2022/02/22 07:02:50;;;;;;;5.65;2.15;;;;;;;21.90;38.51;100905.22;1964864;73;21477;-61
2022/02/22 07:05:19;;;;;;;13.00;3.00;;;;;;;21.98;38.14;100904.10;1965072;73;21021;-61
2022/02/22 07:07:49;;;;;;;5.17;2.37;;;;;;;22.26;37.62;100897.75;1964755;73;21460;-61
2022/02/22 07:10:19;;;;;;;6.42;3.05;;;;;;;22.52;36.96;100900.86;1964859;73;21057;-61
2022/02/22 07:12:48;;;;;;;6.62;2.30;;;;;;;22.83;36.24;100900.83;1964836;73;21524;-61
2022/02/22 07:15:17;;;;;;;7.25;1.92;;;;;;;22.93;35.77;100903.56;1964897;73;21523;-61
2022/02/22 07:17:48;;;;;;;4.53;2.22;;;;;;;22.93;34.79;100907.59;1964889;73;21486;-61
2022/02/22 07:20:18;;;;;;;11.10;3.27;;;;;;;23.00;34.28;100895.33;1964219;73;21041;-62
2022/02/22 07:22:55;;;;;;;11.55;3.45;;;;;;;23.34;34.64;100895.50;1964879;73;21065;-61
2022/02/22 07:25:20;;;;;;;9.83;4.00;;;;;;;23.62;34.28;100894.66;1962543;73;21026;-61
2022/02/22 07:27:49;;;;;;;13.15;6.00;;;;;;;23.98;34.64;100892.80;1964830;73;21025;-61
2022/02/22 07:30:20;;;;;;;9.60;4.90;;;;;;;24.23;34.10;100898.88;1964824;73;21017;-61
2022/02/22 07:32:50;;;;;;;18.30;5.75;;;;;;;24.91;33.56;100895.64;1964885;73;21025;-62
2022/02/22 07:35:19;;;;;;;7.25;2.45;;;;;;;24.95;33.51;100891.13;1964815;72;21456;-61
2022/02/22 07:37:48;;;;;;;10.23;5.55;;;;;;;24.39;31.36;100888.02;1964939;73;20997;-61
2022/02/22 07:40:18;;;;;;;10.00;4.08;;;;;;;24.20;31.30;100883.55;1964865;73;21057;-61
2022/02/22 07:42:48;;;;;;;4.72;2.95;;;;;;;24.24;31.52;100880.91;1964835;73;21542;-60
2022/02/22 07:45:17;;;;;;;8.90;4.20;;;;;;;24.19;31.94;100884.03;1964675;72;21061;-61
2022/02/22 07:47:46;;;;;;;12.70;6.35;;;;;;;24.25;32.06;100874.05;1964732;73;21104;-61
2022/02/22 07:50:15;;;;;;;12.30;3.42;;;;;;;24.42;32.25;100877.81;1964820;73;20994;-61
2022/02/22 07:52:43;;;;;;;7.47;4.47;;;;;;;24.70;31.52;100868.94;1964822;73;21456;-61
2022/02/22 07:55:12;;;;;;;8.35;3.92;;;;;;;24.63;30.91;100868.19;1964811;73;21033;-61
2022/02/22 07:57:41;;;;;;;8.05;3.12;;;;;;;24.65;30.72;100868.89;1965040;72;21103;-61
2022/02/22 08:00:11;;;;;;;12.13;2.87;;;;;;;24.82;29.96;100863.20;1964776;73;21821;-61
2022/02/22 08:02:40;;;;;;;8.15;2.75;;;;;;;24.72;28.42;100861.58;1964909;72;21021;-60
2022/02/22 08:05:09;;;;;;;14.10;2.77;;;;;;;24.59;28.14;100867.31;1964790;73;21017;-60
2022/02/22 08:07:38;;;;;;;9.00;2.70;;;;;;;24.84;28.46;100865.75;1964859;73;21024;-60
2022/02/22 08:10:08;;;;;;;5.55;2.37;;;;;;;24.99;27.77;100862.05;1964845;73;21033;-60
2022/02/22 08:12:37;;;;;;;7.67;2.17;;;;;;;24.62;26.99;100865.17;1964894;73;21022;-60
2022/02/22 08:15:07;;;;;;;8.65;3.45;;;;;;;24.47;26.77;100871.98;1965091;73;21061;-60
2022/02/22 08:17:41;;;;;;;9.28;2.85;;;;;;;24.32;26.89;100860.00;1964838;73;21093;-60
2022/02/22 08:20:11;;;;;;;12.82;3.30;;;;;;;24.45;26.89;100872.62;1964974;73;21506;-60
2022/02/22 08:22:40;;;;;;;8.48;2.75;;;;;;;24.70;26.91;100868.94;1964852;73;21103;-60
2022/02/22 08:25:09;;;;;;;7.90;2.45;;;;;;;24.86;26.52;100858.37;1964733;73;21103;-60
2022/02/22 08:27:39;;;;;;;6.87;2.33;;;;;;;24.68;26.51;100865.55;1964752;73;21025;-60
2022/02/22 08:30:08;;;;;;;4.60;2.08;;;;;;;24.18;27.79;100854.10;1964769;73;21045;-60
2022/02/22 08:32:37;;;;;;;8.85;3.17;;;;;;;23.51;28.07;100855.33;1964798;73;21069;-60
2022/02/22 08:35:06;;;;;;;6.92;2.85;;;;;;;22.99;28.63;100861.39;1964692;73;21037;-61
2022/02/22 08:37:35;;;;;;;4.10;2.52;;;;;;;22.13;29.19;100852.80;1964813;73;21024;-61
2022/02/22 08:40:04;;;;;;;4.85;2.90;;;;;;;21.56;30.29;100858.48;1964678;73;21018;-61
2022/02/22 08:42:33;;;;;;;6.47;2.90;;;;;;;21.36;30.51;100848.55;1964731;73;21002;-61
2022/02/22 08:45:02;;;;;;;8.93;2.70;;;;;;;21.96;30.02;100844.38;1964692;73;21106;-61
2022/02/22 08:47:31;;;;;;;11.22;3.30;;;;;;;22.58;29.66;100845.80;1964639;73;21127;-61
2022/02/22 08:50:00;;;;;;;11.12;3.40;;;;;;;22.75;29.60;100838.43;1949303;73;21074;-61
2022/02/22 08:52:29;;;;;;;5.20;2.35;;;;;;;22.94;28.79;100839.47;1948108;74;21489;-61
2022/02/22 08:54:58;;;;;;;8.15;3.10;;;;;;;22.90;28.21;100839.39;1948063;74;21087;-61
2022/02/22 08:57:27;;;;;;;4.75;2.67;;;;;;;22.99;28.18;100838.56;1948119;74;21102;-60
2022/02/22 08:59:56;;;;;;;7.47;3.08;;;;;;;23.40;27.93;100829.95;1948250;74;21465;-61
2022/02/22 09:02:24;;;;;;;10.50;3.42;;;;;;;23.09;28.63;100834.58;1948143;74;21563;-62
2022/02/22 09:04:53;;;;;;;7.95;2.55;;;;;;;22.29;29.40;100834.44;1948232;74;21116;-61
2022/02/22 09:07:22;;;;;;;10.98;4.97;;;;;;;21.37;29.86;100838.19;1948185;74;21046;-61
2022/02/22 09:09:51;;;;;;;8.90;3.05;;;;;;;20.65;30.95;100833.37;1948217;74;21046;-61
2022/02/22 09:12:20;;;;;;;6.87;2.90;;;;;;;20.37;31.57;100838.20;1948224;74;21046;-61
2022/02/22 09:14:49;;;;;;;6.12;2.90;;;;;;;19.92;32.13;100834.98;1948159;74;21115;-61
2022/02/22 09:17:18;;;;;;;6.97;3.58;;;;;;;19.47;32.72;100828.96;1948155;74;21022;-60
2022/02/22 09:19:47;;;;;;;10.90;4.58;;;;;;;19.13;33.09;100826.64;1948193;74;21500;-60
2022/02/22 09:22:15;;;;;;;14.73;4.00;;;;;;;18.65;33.66;100823.87;1948220;74;21589;-60
2022/02/22 09:24:44;;;;;;;15.00;4.22;;;;;;;18.33;34.26;100830.98;1948335;74;21018;-60
2022/02/22 09:27:13;;;;;;;7.95;3.08;;;;;;;18.24;34.74;100830.30;1948298;74;21107;-60
2022/02/22 09:29:42;;;;;;;14.90;4.87;;;;;;;18.35;34.87;100830.39;1948081;74;21112;-61
2022/02/22 09:32:11;;;;;;;7.62;3.52;;;;;;;18.97;34.25;100835.39;1948190;74;21046;-61
2022/02/22 09:34:40;;;;;;;9.63;3.83;;;;;;;21.03;30.92;100826.25;1948226;74;21002;-61
2022/02/22 09:37:09;;;;;;;5.75;2.58;;;;;;;22.71;29.30;100814.20;1948311;74;21026;-61
2022/02/22 09:39:39;;;;;;;8.28;3.17;;;;;;;23.70;27.91;100817.37;1948189;74;21473;-60
2022/02/22 09:42:09;;;;;;;7.10;3.00;;;;;;;24.55;26.74;100820.13;1948088;74;21034;-61
2022/02/22 09:44:40;;;;;;;14.38;3.80;;;;;;;25.40;26.21;100810.82;1948214;74;21002;-60
2022/02/22 09:47:10;;;;;;;7.22;3.02;;;;;;;25.63;25.08;100813.86;1948223;74;21078;-60
2022/02/22 09:49:38;;;;;;;4.87;2.90;;;;;;;26.15;24.72;100810.39;1948134;73;21148;-60
2022/02/22 09:52:07;;;;;;;6.33;3.02;;;;;;;25.06;24.81;100807.92;1948205;74;21050;-60
2022/02/22 09:54:37;;;;;;;5.97;2.83;;;;;;;24.13;25.51;100817.37;1948100;74;21580;-61
2022/02/22 09:57:06;;;;;;;6.33;3.12;;;;;;;23.08;26.93;100817.63;1948200;74;21042;-60
2022/02/22 09:59:35;;;;;;;6.33;3.10;;;;;;;21.87;28.21;100812.16;1948214;74;21491;-60
2022/02/22 10:02:04;;;;;;;7.15;3.02;;;;;;;21.12;29.24;100816.13;1948201;74;21018;-61
2022/02/22 10:04:35;;;;;;;6.62;3.10;;;;;;;20.63;30.29;100816.94;1948244;74;21030;-60
2022/02/22 10:07:07;;;;;;;8.65;2.85;;;;;;;20.17;30.81;100815.70;1947174;74;21538;-61
2022/02/22 10:09:35;;;;;;;7.42;3.00;;;;;;;19.76;31.07;100812.59;1948288;73;21477;-60
2022/02/22 10:12:04;;;;;;;5.10;2.45;;;;;;;19.31;31.48;100820.89;1948312;74;21030;-60
2022/02/22 10:14:34;;;;;;;4.50;2.30;;;;;;;18.81;31.84;100811.17;1948250;74;21031;-60
2022/02/22 10:17:03;;;;;;;6.10;2.62;;;;;;;18.63;32.38;100817.80;1948204;74;21030;-60
2022/02/22 10:19:34;;;;;;;6.40;2.67;;;;;;;18.42;32.41;100806.84;1948275;72;21026;-60
2022/02/22 10:22:04;;;;;;;5.00;3.17;;;;;;;18.28;32.84;100815.83;1948309;74;21030;-61
2022/02/22 10:24:33;;;;;;;4.97;3.10;;;;;;;18.11;33.00;100812.52;1948261;74;21030;-61
2022/02/22 10:27:07;;;;;;;5.15;3.00;;;;;;;17.96;33.38;100808.23;1948169;74;21116;-61
2022/02/22 10:29:38;;;;;;;5.70;2.70;;;;;;;17.85;33.59;100803.64;1948185;74;21050;-61
2022/02/22 10:32:14;;;;;;;7.90;3.12;;;;;;;17.83;33.81;100807.34;1948385;74;21022;-61
2022/02/22 10:34:43;;;;;;;7.95;2.50;;;;;;;17.74;33.92;100799.05;1948177;74;21014;-61
2022/02/22 10:37:12;;;;;;;5.35;2.40;;;;;;;17.70;34.16;100792.69;1948167;74;21014;-61
2022/02/22 10:39:40;;;;;;;5.95;2.42;;;;;;;17.59;34.25;100800.06;1948164;74;21089;-61
2022/02/22 10:42:09;;;;;;;3.52;2.20;;;;;;;17.62;34.50;100788.38;1948170;74;21480;-61
2022/02/22 10:44:39;;;;;;;21.10;8.70;;;;;;;17.63;34.56;100780.29;1948028;74;21073;-61
2022/02/22 10:47:20;;;;;;;7.58;2.65;;;;;;;17.68;34.73;100788.79;1948174;74;21046;-61
2022/02/22 10:49:49;;;;;;;21.05;3.80;;;;;;;17.67;34.12;100780.91;1948005;73;21148;-61
2022/02/22 10:52:19;;;;;;;10.38;1.90;;;;;;;17.54;34.10;100776.92;1948286;74;21030;-61
2022/02/22 10:55:00;;;;;;;5.90;2.40;;;;;;;17.44;33.93;100781.14;1948181;74;21516;-61
2022/02/22 10:57:29;;;;;;;9.65;2.27;;;;;;;17.38;33.76;100780.23;1948135;74;21567;-61
2022/02/22 10:59:59;;;;;;;4.35;2.08;;;;;;;17.32;34.05;100774.36;1948262;74;21551;-60
2022/02/22 11:02:29;;;;;;;5.58;2.12;;;;;;;17.27;34.09;100772.47;1948191;74;21077;-61
2022/02/22 11:05:07;;;;;;;4.40;2.25;;;;;;;17.22;33.86;100759.95;1947301;74;21043;-61
2022/02/22 11:07:38;;;;;;;7.70;2.70;;;;;;;17.23;34.37;100770.98;1948027;72;21509;-61
2022/02/22 11:10:08;;;;;;;3.75;1.70;;;;;;;17.28;34.25;100760.89;1948291;73;21018;-61
2022/02/22 11:12:40;;;;;;;3.20;1.75;;;;;;;17.29;34.10;100761.25;1948181;72;21473;-61
2022/02/22 11:15:11;;;;;;;5.45;2.00;;;;;;;17.32;34.17;100758.39;1948170;74;21006;-61
2022/02/22 11:17:51;;;;;;;3.85;1.95;;;;;;;17.36;33.85;100755.89;1948342;74;21002;-61
2022/02/22 11:20:32;;;;;;;4.22;2.00;;;;;;;17.31;33.64;100764.66;1948053;74;21022;-61
2022/02/22 11:23:04;;;;;;;5.15;2.00;;;;;;;17.32;33.61;100758.39;1948300;74;21022;-61
2022/02/22 11:25:36;;;;;;;5.33;2.08;;;;;;;17.35;33.63;100755.98;1948328;74;21026;-61
2022/02/22 11:28:08;;;;;;;4.60;2.37;;;;;;;17.35;33.37;100742.23;1948112;74;21054;-61
2022/02/22 11:30:38;;;;;;;4.25;2.22;;;;;;;17.40;33.42;100761.86;1948033;74;20999;-61
2022/02/22 11:33:10;;;;;;;5.12;2.58;;;;;;;17.49;33.68;100761.24;1948251;74;21030;-61